sensor_id;sensor_type;location;lat;lon;timestamp;pressure;altitude;pressure_sealevel;temperature;humidity
21109;BME280;10712;52.944;9.098;2023-03-26T00:01:32;100257.03;;;16.12;54.11
21109;BME280;10712;52.944;9.098;2023-03-26T00:04:03;100264.47;;;15.99;54.36
21109;BME280;10712;52.944;9.098;2023-03-26T00:06:34;100266.94;;;16.11;54.12
21109;BME280;10712;52.944;9.098;2023-03-26T00:09:05;100260.56;;;16.12;54.00
21109;BME280;10712;52.944;9.098;2023-03-26T00:11:31;100271.63;;;16.09;54.09
21109;BME280;10712;52.944;9.098;2023-03-26T00:13:57;100270.47;;;16.12;53.86
21109;BME280;10712;52.944;9.098;2023-03-26T00:16:28;100269.84;;;15.99;53.92
21109;BME280;10712;52.944;9.098;2023-03-26T00:18:54;100273.88;;;16.14;53.51
21109;BME280;10712;52.944;9.098;2023-03-26T00:21:24;100272.47;;;16.10;53.45
21109;BME280;10712;52.944;9.098;2023-03-26T00:23:58;100271.56;;;16.00;53.50
21109;BME280;10712;52.944;9.098;2023-03-26T00:26:26;100277.47;;;15.94;53.60
21109;BME280;10712;52.944;9.098;2023-03-26T00:28:51;100285.00;;;16.00;53.28
21109;BME280;10712;52.944;9.098;2023-03-26T00:31:19;100278.03;;;15.97;53.38
21109;BME280;10712;52.944;9.098;2023-03-26T00:33:45;100296.03;;;15.97;53.32
21109;BME280;10712;52.944;9.098;2023-03-26T00:36:15;100287.66;;;15.90;53.34
21109;BME280;10712;52.944;9.098;2023-03-26T00:38:43;100299.94;;;15.93;53.24
21109;BME280;10712;52.944;9.098;2023-03-26T00:41:12;100299.38;;;15.89;53.35
21109;BME280;10712;52.944;9.098;2023-03-26T00:43:50;100306.59;;;15.89;53.32
21109;BME280;10712;52.944;9.098;2023-03-26T00:46:16;100304.59;;;15.91;53.38
21109;BME280;10712;52.944;9.098;2023-03-26T00:48:43;100307.38;;;15.80;53.32
21109;BME280;10712;52.944;9.098;2023-03-26T00:51:11;100305.44;;;15.91;53.27
21109;BME280;10712;52.944;9.098;2023-03-26T00:53:41;100311.44;;;15.95;53.12
21109;BME280;10712;52.944;9.098;2023-03-26T00:56:08;100312.22;;;15.86;53.37
21109;BME280;10712;52.944;9.098;2023-03-26T00:58:34;100310.81;;;15.91;53.39
21109;BME280;10712;52.944;9.098;2023-03-26T01:01:18;100307.16;;;15.92;53.45
21109;BME280;10712;52.944;9.098;2023-03-26T01:03:47;100306.91;;;15.95;53.46
21109;BME280;10712;52.944;9.098;2023-03-26T01:06:23;100313.78;;;15.88;53.74
21109;BME280;10712;52.944;9.098;2023-03-26T01:08:54;100315.63;;;15.88;53.94
21109;BME280;10712;52.944;9.098;2023-03-26T01:11:31;100315.34;;;15.91;54.02
21109;BME280;10712;52.944;9.098;2023-03-26T01:14:10;100311.69;;;15.92;54.17
21109;BME280;10712;52.944;9.098;2023-03-26T01:16:46;100314.19;;;15.84;54.16
21109;BME280;10712;52.944;9.098;2023-03-26T01:22:16;100313.66;;;15.90;54.55
21109;BME280;10712;52.944;9.098;2023-03-26T01:24:42;100326.63;;;15.85;54.72
21109;BME280;10712;52.944;9.098;2023-03-26T01:27:41;100330.28;;;15.84;54.77
21109;BME280;10712;52.944;9.098;2023-03-26T01:30:55;100324.34;;;15.80;54.95
21109;BME280;10712;52.944;9.098;2023-03-26T01:33:57;100329.09;;;15.67;55.59
21109;BME280;10712;52.944;9.098;2023-03-26T01:37:01;100313.88;;;15.56;55.54
21109;BME280;10712;52.944;9.098;2023-03-26T01:39:54;100329.63;;;15.50;55.70
21109;BME280;10712;52.944;9.098;2023-03-26T01:42:35;100330.03;;;15.45;55.70
21109;BME280;10712;52.944;9.098;2023-03-26T01:45:20;100325.19;;;15.39;55.87
21109;BME280;10712;52.944;9.098;2023-03-26T01:47:48;100324.47;;;15.37;56.05
21109;BME280;10712;52.944;9.098;2023-03-26T01:50:15;100320.28;;;15.44;55.76
21109;BME280;10712;52.944;9.098;2023-03-26T01:52:41;100321.53;;;15.40;55.73
21109;BME280;10712;52.944;9.098;2023-03-26T01:55:08;100322.38;;;15.41;55.93
21109;BME280;10712;52.944;9.098;2023-03-26T01:57:59;100317.88;;;15.41;55.98
21109;BME280;10712;52.944;9.098;2023-03-26T02:00:41;100322.50;;;15.39;56.10
21109;BME280;10712;52.944;9.098;2023-03-26T02:03:41;100321.72;;;15.48;55.97
21109;BME280;10712;52.944;9.098;2023-03-26T02:09:08;100314.59;;;15.58;55.52
21109;BME280;10712;52.944;9.098;2023-03-26T02:11:40;100323.63;;;15.57;55.22
21109;BME280;10712;52.944;9.098;2023-03-26T02:14:07;100317.72;;;15.63;55.01
21109;BME280;10712;52.944;9.098;2023-03-26T02:16:34;100318.75;;;15.51;55.21
21109;BME280;10712;52.944;9.098;2023-03-26T02:18:59;100312.03;;;15.57;54.66
21109;BME280;10712;52.944;9.098;2023-03-26T02:21:27;100313.19;;;15.54;54.62
21109;BME280;10712;52.944;9.098;2023-03-26T02:23:56;100325.84;;;15.52;54.47
21109;BME280;10712;52.944;9.098;2023-03-26T02:26:32;100317.34;;;15.47;54.49
21109;BME280;10712;52.944;9.098;2023-03-26T02:29:08;100315.69;;;15.35;54.44
21109;BME280;10712;52.944;9.098;2023-03-26T02:31:36;100312.22;;;15.44;53.97
21109;BME280;10712;52.944;9.098;2023-03-26T02:34:02;100309.97;;;15.49;53.88
21109;BME280;10712;52.944;9.098;2023-03-26T02:36:31;100308.03;;;15.51;53.75
21109;BME280;10712;52.944;9.098;2023-03-26T02:39:00;100305.63;;;15.48;53.76
21109;BME280;10712;52.944;9.098;2023-03-26T02:41:29;100301.47;;;15.55;53.35
21109;BME280;10712;52.944;9.098;2023-03-26T02:43:59;100309.72;;;15.52;53.26
21109;BME280;10712;52.944;9.098;2023-03-26T02:46:45;100302.34;;;15.45;53.31
21109;BME280;10712;52.944;9.098;2023-03-26T02:49:37;100301.22;;;15.47;53.30
21109;BME280;10712;52.944;9.098;2023-03-26T02:52:03;100302.94;;;15.48;53.57
21109;BME280;10712;52.944;9.098;2023-03-26T02:54:32;100292.44;;;15.45;53.35
21109;BME280;10712;52.944;9.098;2023-03-26T02:57:14;100294.16;;;15.46;53.41
21109;BME280;10712;52.944;9.098;2023-03-26T03:00:07;100289.75;;;15.45;53.49
21109;BME280;10712;52.944;9.098;2023-03-26T03:02:45;100289.63;;;15.47;53.55
21109;BME280;10712;52.944;9.098;2023-03-26T03:05:33;100293.06;;;15.49;53.30
21109;BME280;10712;52.944;9.098;2023-03-26T03:08:21;100294.16;;;15.46;53.47
21109;BME280;10712;52.944;9.098;2023-03-26T03:11:17;100290.00;;;15.42;53.60
21109;BME280;10712;52.944;9.098;2023-03-26T03:13:48;100294.41;;;15.43;53.62
21109;BME280;10712;52.944;9.098;2023-03-26T03:16:21;100285.13;;;15.47;53.70
21109;BME280;10712;52.944;9.098;2023-03-26T03:18:47;100285.13;;;15.47;53.65
21109;BME280;10712;52.944;9.098;2023-03-26T03:21:24;100287.69;;;15.49;53.83
21109;BME280;10712;52.944;9.098;2023-03-26T03:23:50;100287.69;;;15.49;53.85
21109;BME280;10712;52.944;9.098;2023-03-26T03:26:20;100292.19;;;15.48;53.94
21109;BME280;10712;52.944;9.098;2023-03-26T03:28:54;100289.50;;;15.48;54.09
21109;BME280;10712;52.944;9.098;2023-03-26T03:31:22;100291.34;;;15.48;54.03
21109;BME280;10712;52.944;9.098;2023-03-26T03:33:56;100286.47;;;15.53;54.07
21109;BME280;10712;52.944;9.098;2023-03-26T03:36:23;100285.81;;;15.49;54.20
21109;BME280;10712;52.944;9.098;2023-03-26T03:39:07;100285.13;;;15.47;54.44
21109;BME280;10712;52.944;9.098;2023-03-26T03:41:34;100295.88;;;15.47;54.38
21109;BME280;10712;52.944;9.098;2023-03-26T03:44:03;100290.50;;;15.47;54.32
21109;BME280;10712;52.944;9.098;2023-03-26T03:46:31;100294.38;;;15.54;54.30
21109;BME280;10712;52.944;9.098;2023-03-26T03:48:57;100297.06;;;15.54;54.31
21109;BME280;10712;52.944;9.098;2023-03-26T03:51:31;100298.78;;;15.55;54.44
21109;BME280;10712;52.944;9.098;2023-03-26T03:53:59;100298.53;;;15.47;54.67
21109;BME280;10712;52.944;9.098;2023-03-26T03:56:37;100294.88;;;15.48;54.70
21109;BME280;10712;52.944;9.098;2023-03-26T03:59:23;100289.47;;;15.59;54.30
21109;BME280;10712;52.944;9.098;2023-03-26T04:01:49;100294.84;;;15.59;54.26
21109;BME280;10712;52.944;9.098;2023-03-26T04:04:37;100284.63;;;15.53;54.21
21109;BME280;10712;52.944;9.098;2023-03-26T04:07:05;100290.72;;;15.55;54.29
21109;BME280;10712;52.944;9.098;2023-03-26T04:09:46;100290.94;;;15.52;54.17
21109;BME280;10712;52.944;9.098;2023-03-26T04:12:16;100281.94;;;15.53;54.09
21109;BME280;10712;52.944;9.098;2023-03-26T04:14:58;100281.47;;;15.48;54.00
21109;BME280;10712;52.944;9.098;2023-03-26T04:17:25;100289.63;;;15.47;54.05
21109;BME280;10712;52.944;9.098;2023-03-26T04:19:54;100277.75;;;15.49;54.01
21109;BME280;10712;52.944;9.098;2023-03-26T04:22:22;100288.50;;;15.49;54.12
21109;BME280;10712;52.944;9.098;2023-03-26T04:24:55;100282.16;;;15.50;53.84
21109;BME280;10712;52.944;9.098;2023-03-26T04:27:30;100278.56;;;15.40;53.79
21109;BME280;10712;52.944;9.098;2023-03-26T04:30:18;100279.75;;;15.47;53.65
21109;BME280;10712;52.944;9.098;2023-03-26T04:32:51;100278.03;;;15.46;53.44
21109;BME280;10712;52.944;9.098;2023-03-26T04:35:17;100271.22;;;15.42;53.40
21109;BME280;10712;52.944;9.098;2023-03-26T04:37:50;100278.56;;;15.40;53.21
21109;BME280;10712;52.944;9.098;2023-03-26T04:40:28;100280.00;;;15.44;53.13
21109;BME280;10712;52.944;9.098;2023-03-26T04:43:03;100274.06;;;15.41;53.03
21109;BME280;10712;52.944;9.098;2023-03-26T04:45:48;100276.88;;;15.39;52.98
21109;BME280;10712;52.944;9.098;2023-03-26T04:48:15;100273.91;;;15.42;52.93
21109;BME280;10712;52.944;9.098;2023-03-26T04:50:43;100273.47;;;15.37;52.87
21109;BME280;10712;52.944;9.098;2023-03-26T04:53:17;100270.53;;;15.40;52.67
21109;BME280;10712;52.944;9.098;2023-03-26T04:59:21;100266.66;;;15.33;52.34
21109;BME280;10712;52.944;9.098;2023-03-26T05:01:52;100273.75;;;15.34;51.95
21109;BME280;10712;52.944;9.098;2023-03-26T05:04:19;100271.31;;;15.31;51.92
21109;BME280;10712;52.944;9.098;2023-03-26T05:06:46;100272.06;;;15.22;51.29
21109;BME280;10712;52.944;9.098;2023-03-26T05:09:25;100277.19;;;15.25;50.77
21109;BME280;10712;52.944;9.098;2023-03-26T05:12:09;100278.44;;;15.21;50.79
21109;BME280;10712;52.944;9.098;2023-03-26T05:14:47;100279.88;;;15.25;50.48
21109;BME280;10712;52.944;9.098;2023-03-26T05:17:19;100280.66;;;15.16;50.60
21109;BME280;10712;52.944;9.098;2023-03-26T05:19:46;100285.44;;;15.12;50.69
21109;BME280;10712;52.944;9.098;2023-03-26T05:22:13;100286.28;;;15.13;50.79
21109;BME280;10712;52.944;9.098;2023-03-26T05:24:55;100286.81;;;15.07;51.04
21109;BME280;10712;52.944;9.098;2023-03-26T05:27:21;100295.31;;;15.12;50.66
21109;BME280;10712;52.944;9.098;2023-03-26T05:29:47;100288.25;;;15.11;50.93
21109;BME280;10712;52.944;9.098;2023-03-26T05:32:13;100288.50;;;15.08;50.91
21109;BME280;10712;52.944;9.098;2023-03-26T05:34:40;100287.06;;;15.04;51.17
21109;BME280;10712;52.944;9.098;2023-03-26T05:37:06;100286.81;;;15.07;51.18
21109;BME280;10712;52.944;9.098;2023-03-26T05:39:54;100301.44;;;15.03;51.21
21109;BME280;10712;52.944;9.098;2023-03-26T05:42:39;100297.91;;;15.02;51.19
21109;BME280;10712;52.944;9.098;2023-03-26T05:45:23;100297.66;;;15.05;50.95
21109;BME280;10712;52.944;9.098;2023-03-26T05:47:50;100296.94;;;15.03;50.99
21109;BME280;10712;52.944;9.098;2023-03-26T05:50:19;100298.75;;;15.03;51.03
21109;BME280;10712;52.944;9.098;2023-03-26T05:52:47;100300.34;;;15.05;51.02
21109;BME280;10712;52.944;9.098;2023-03-26T05:55:31;100295.84;;;15.06;50.89
21109;BME280;10712;52.944;9.098;2023-03-26T05:58:16;100291.56;;;15.03;50.85
21109;BME280;10712;52.944;9.098;2023-03-26T06:01:08;100289.00;;;15.02;50.87
21109;BME280;10712;52.944;9.098;2023-03-26T06:03:53;100289.16;;;15.00;50.95
21109;BME280;10712;52.944;9.098;2023-03-26T06:06:20;100279.13;;;15.02;50.80
21109;BME280;10712;52.944;9.098;2023-03-26T06:08:56;100278.16;;;15.03;50.66
21109;BME280;10712;52.944;9.098;2023-03-26T06:11:22;100271.47;;;14.97;50.51
21109;BME280;10712;52.944;9.098;2023-03-26T06:13:48;100273.72;;;14.92;50.37
21109;BME280;10712;52.944;9.098;2023-03-26T06:16:14;100272.72;;;14.93;50.29
21109;BME280;10712;52.944;9.098;2023-03-26T06:18:52;100277.38;;;14.91;50.40
21109;BME280;10712;52.944;9.098;2023-03-26T06:21:37;100279.31;;;14.89;50.41
21109;BME280;10712;52.944;9.098;2023-03-26T06:24:14;100274.69;;;14.91;50.34
21109;BME280;10712;52.944;9.098;2023-03-26T06:27:05;100282.00;;;14.89;50.24
21109;BME280;10712;52.944;9.098;2023-03-26T06:29:49;100279.06;;;14.92;50.31
21109;BME280;10712;52.944;9.098;2023-03-26T06:32:37;100280.25;;;15.00;50.23
21109;BME280;10712;52.944;9.098;2023-03-26T06:35:10;100284.28;;;14.94;50.20
21109;BME280;10712;52.944;9.098;2023-03-26T06:37:36;100282.34;;;14.96;50.16
21109;BME280;10712;52.944;9.098;2023-03-26T06:40:03;100287.56;;;14.97;50.05
21109;BME280;10712;52.944;9.098;2023-03-26T06:42:55;100288.03;;;15.03;50.08
21109;BME280;10712;52.944;9.098;2023-03-26T06:45:40;100286.09;;;15.05;49.96
21109;BME280;10712;52.944;9.098;2023-03-26T06:48:24;100277.75;;;15.08;49.96
21109;BME280;10712;52.944;9.098;2023-03-26T06:51:09;100280.19;;;15.11;50.07
21109;BME280;10712;52.944;9.098;2023-03-26T06:53:56;100290.81;;;15.12;49.91
21109;BME280;10712;52.944;9.098;2023-03-26T06:56:41;100284.59;;;15.12;49.49
21109;BME280;10712;52.944;9.098;2023-03-26T06:59:26;100288.25;;;15.11;49.46
21109;BME280;10712;52.944;9.098;2023-03-26T07:02:11;100291.66;;;15.13;49.55
21109;BME280;10712;52.944;9.098;2023-03-26T07:05:03;100291.38;;;15.16;49.65
21109;BME280;10712;52.944;9.098;2023-03-26T07:07:47;100280.41;;;15.19;49.61
21109;BME280;10712;52.944;9.098;2023-03-26T07:10:16;100285.78;;;15.19;49.67
21109;BME280;10712;52.944;9.098;2023-03-26T07:12:54;100275.63;;;15.22;49.82
21109;BME280;10712;52.944;9.098;2023-03-26T07:15:52;100276.94;;;15.28;49.80
21109;BME280;10712;52.944;9.098;2023-03-26T07:18:32;100270.84;;;15.26;49.86
21109;BME280;10712;52.944;9.098;2023-03-26T07:20:59;100262.06;;;15.24;49.85
21109;BME280;10712;52.944;9.098;2023-03-26T07:23:29;100266.88;;;15.20;49.93
21109;BME280;10712;52.944;9.098;2023-03-26T07:30:04;100260.38;;;15.23;49.71
21109;BME280;10712;52.944;9.098;2023-03-26T07:33:05;100270.66;;;15.18;49.52
21109;BME280;10712;52.944;9.098;2023-03-26T07:42:28;100265.16;;;15.19;49.59
21109;BME280;10712;52.944;9.098;2023-03-26T07:45:38;100262.06;;;15.24;49.69
21109;BME280;10712;52.944;9.098;2023-03-26T07:48:28;100264.50;;;15.27;49.25
21109;BME280;10712;52.944;9.098;2023-03-26T07:51:16;100263.53;;;15.28;49.28
21109;BME280;10712;52.944;9.098;2023-03-26T07:53:53;100263.78;;;15.25;49.36
21109;BME280;10712;52.944;9.098;2023-03-26T07:56:58;100259.84;;;15.29;49.48
21109;BME280;10712;52.944;9.098;2023-03-26T07:59:39;100256.66;;;15.35;49.47
21109;BME280;10712;52.944;9.098;2023-03-26T08:05:56;100254.75;;;15.26;49.33
21109;BME280;10712;52.944;9.098;2023-03-26T08:08:49;100257.16;;;15.29;49.50
21109;BME280;10712;52.944;9.098;2023-03-26T08:11:52;100253.91;;;15.25;49.29
21109;BME280;10712;52.944;9.098;2023-03-26T08:22:30;100258.41;;;15.25;49.20
21109;BME280;10712;52.944;9.098;2023-03-26T08:25:28;100259.19;;;15.16;49.25
21109;BME280;10712;52.944;9.098;2023-03-26T08:28:24;100256.66;;;15.14;49.30
21109;BME280;10712;52.944;9.098;2023-03-26T08:30:54;100270.53;;;15.19;49.52
21109;BME280;10712;52.944;9.098;2023-03-26T08:33:24;100259.66;;;15.21;49.48
21109;BME280;10712;52.944;9.098;2023-03-26T08:35:50;100272.22;;;15.20;49.72
21109;BME280;10712;52.944;9.098;2023-03-26T08:38:18;100272.34;;;15.19;49.35
21109;BME280;10712;52.944;9.098;2023-03-26T09:03:18;100279.94;;;14.93;47.03
21109;BME280;10712;52.944;9.098;2023-03-26T09:09:38;100274.94;;;14.88;46.99
21109;BME280;10712;52.944;9.098;2023-03-26T09:28:52;100285.78;;;15.19;47.39
21109;BME280;10712;52.944;9.098;2023-03-26T09:32:08;100289.94;;;15.12;47.28
21109;BME280;10712;52.944;9.098;2023-03-26T09:37:58;100287.81;;;15.26;46.76
21109;BME280;10712;52.944;9.098;2023-03-26T09:49:26;100293.22;;;15.36;46.63
21109;BME280;10712;52.944;9.098;2023-03-26T09:55:12;100287.00;;;15.35;46.56
21109;BME280;10712;52.944;9.098;2023-03-26T09:58:30;100290.41;;;15.37;45.59
21109;BME280;10712;52.944;9.098;2023-03-26T10:01:06;100281.38;;;15.38;45.15
21109;BME280;10712;52.944;9.098;2023-03-26T10:04:06;100286.97;;;15.26;44.96
21109;BME280;10712;52.944;9.098;2023-03-26T10:06:49;100288.38;;;15.30;45.14
21109;BME280;10712;52.944;9.098;2023-03-26T10:09:31;100284.72;;;15.31;45.43
21109;BME280;10712;52.944;9.098;2023-03-26T10:36:01;100262.34;;;15.62;43.88
21109;BME280;10712;52.944;9.098;2023-03-26T10:45:11;100264.34;;;15.70;44.48
21109;BME280;10712;52.944;9.098;2023-03-26T10:48:11;100265.50;;;15.67;43.37
21109;BME280;10712;52.944;9.098;2023-03-26T10:53:54;100270.31;;;15.73;43.19
21109;BME280;10712;52.944;9.098;2023-03-26T10:56:29;100266.72;;;15.63;43.46
21109;BME280;10712;52.944;9.098;2023-03-26T10:59:05;100269.38;;;15.54;43.66
21109;BME280;10712;52.944;9.098;2023-03-26T11:04:42;100268.84;;;15.60;43.71
21109;BME280;10712;52.944;9.098;2023-03-26T11:07:32;100272.03;;;15.74;43.36
21109;BME280;10712;52.944;9.098;2023-03-26T11:12:56;100271.97;;;15.65;42.52
21109;BME280;10712;52.944;9.098;2023-03-26T11:15:53;100276.41;;;15.75;42.67
21109;BME280;10712;52.944;9.098;2023-03-26T11:20:15;100271.91;;;15.76;43.04
21109;BME280;10712;52.944;9.098;2023-03-26T11:26:16;100264.63;;;15.97;42.98
21109;BME280;10712;52.944;9.098;2023-03-26T11:32:40;100271.44;;;16.01;43.15
21109;BME280;10712;52.944;9.098;2023-03-26T11:35:24;100268.50;;;16.14;43.43
21109;BME280;10712;52.944;9.098;2023-03-26T11:37:55;100267.56;;;16.25;43.18
21109;BME280;10712;52.944;9.098;2023-03-26T11:40:38;100265.44;;;16.28;43.53
21109;BME280;10712;52.944;9.098;2023-03-26T11:43:11;100265.44;;;16.28;43.31
21109;BME280;10712;52.944;9.098;2023-03-26T11:45:44;100260.63;;;16.22;42.35
21109;BME280;10712;52.944;9.098;2023-03-26T11:48:34;100258.34;;;16.27;42.82
21109;BME280;10712;52.944;9.098;2023-03-26T11:51:11;100264.66;;;16.07;42.57
21109;BME280;10712;52.944;9.098;2023-03-26T11:53:39;100259.63;;;16.33;42.60
21109;BME280;10712;52.944;9.098;2023-03-26T11:56:27;100262.63;;;16.39;42.61
21109;BME280;10712;52.944;9.098;2023-03-26T11:59:13;100253.91;;;16.57;42.58
21109;BME280;10712;52.944;9.098;2023-03-26T12:04:48;100252.50;;;16.52;42.03
21109;BME280;10712;52.944;9.098;2023-03-26T12:07:20;100252.19;;;16.55;41.66
21109;BME280;10712;52.944;9.098;2023-03-26T12:09:53;100251.63;;;16.52;41.43
21109;BME280;10712;52.944;9.098;2023-03-26T12:12:26;100253.91;;;16.57;41.17
21109;BME280;10712;52.944;9.098;2023-03-26T12:14:52;100247.56;;;16.67;41.54
21109;BME280;10712;52.944;9.098;2023-03-26T12:17:35;100244.03;;;16.76;41.09
21109;BME280;10712;52.944;9.098;2023-03-26T12:22:55;100245.81;;;16.37;40.56
21109;BME280;10712;52.944;9.098;2023-03-26T12:25:32;100252.13;;;16.27;41.97
21109;BME280;10712;52.944;9.098;2023-03-26T12:30:57;100244.16;;;16.06;41.99
21109;BME280;10712;52.944;9.098;2023-03-26T12:33:29;100241.94;;;16.11;41.28
21109;BME280;10712;52.944;9.098;2023-03-26T12:36:15;100246.19;;;16.23;41.15
21109;BME280;10712;52.944;9.098;2023-03-26T12:38:42;100253.28;;;16.24;41.08
21109;BME280;10712;52.944;9.098;2023-03-26T12:41:14;100247.56;;;16.08;40.38
21109;BME280;10712;52.944;9.098;2023-03-26T12:43:49;100251.22;;;16.07;39.65
21109;BME280;10712;52.944;9.098;2023-03-26T12:49:00;100247.59;;;16.27;40.51
21109;BME280;10712;52.944;9.098;2023-03-26T12:51:53;100243.63;;;16.22;40.16
21109;BME280;10712;52.944;9.098;2023-03-26T12:54:54;100240.53;;;16.26;39.88
21109;BME280;10712;52.944;9.098;2023-03-26T12:57:31;100244.34;;;16.33;40.29
21109;BME280;10712;52.944;9.098;2023-03-26T13:03:32;100241.06;;;16.20;39.74
21109;BME280;10712;52.944;9.098;2023-03-26T13:06:36;100248.75;;;16.34;41.20
21109;BME280;10712;52.944;9.098;2023-03-26T13:12:13;100249.03;;;16.31;39.63
21109;BME280;10712;52.944;9.098;2023-03-26T13:18:12;100255.28;;;16.41;39.73
21109;BME280;10712;52.944;9.098;2023-03-26T13:20:55;100253.41;;;16.32;39.68
21109;BME280;10712;52.944;9.098;2023-03-26T13:26:46;100254.44;;;16.31;40.11
21109;BME280;10712;52.944;9.098;2023-03-26T13:32:22;100241.97;;;16.40;40.02
21109;BME280;10712;52.944;9.098;2023-03-26T13:35:31;100247.84;;;16.14;39.32
21109;BME280;10712;52.944;9.098;2023-03-26T13:41:44;100249.88;;;16.22;38.10
21109;BME280;10712;52.944;9.098;2023-03-26T13:47:25;100252.13;;;16.17;39.04
21109;BME280;10712;52.944;9.098;2023-03-26T13:49:56;100246.88;;;16.25;39.29
21109;BME280;10712;52.944;9.098;2023-03-26T13:58:55;100244.81;;;16.48;38.79
21109;BME280;10712;52.944;9.098;2023-03-26T14:01:31;100250.63;;;15.94;37.97
21109;BME280;10712;52.944;9.098;2023-03-26T14:04:32;100243.59;;;16.12;38.77
21109;BME280;10712;52.944;9.098;2023-03-26T14:07:13;100245.34;;;16.32;38.57
21109;BME280;10712;52.944;9.098;2023-03-26T14:10:16;100240.00;;;16.42;38.22
21109;BME280;10712;52.944;9.098;2023-03-26T14:13:28;100243.38;;;16.25;39.35
21109;BME280;10712;52.944;9.098;2023-03-26T14:16:16;100240.59;;;16.45;37.59
21109;BME280;10712;52.944;9.098;2023-03-26T14:19:03;100248.84;;;16.04;37.25
21109;BME280;10712;52.944;9.098;2023-03-26T14:24:58;100241.03;;;16.01;37.25
21109;BME280;10712;52.944;9.098;2023-03-26T14:43:00;100239.06;;;16.62;37.87
21109;BME280;10712;52.944;9.098;2023-03-26T14:45:54;100237.81;;;16.76;37.53
21109;BME280;10712;52.944;9.098;2023-03-26T14:48:48;100243.59;;;16.62;38.50
21109;BME280;10712;52.944;9.098;2023-03-26T14:55:16;100243.69;;;16.31;37.16
21109;BME280;10712;52.944;9.098;2023-03-26T14:58:18;100247.47;;;16.29;37.67
21109;BME280;10712;52.944;9.098;2023-03-26T15:04:12;100253.50;;;16.11;38.03
21109;BME280;10712;52.944;9.098;2023-03-26T15:10:20;100256.59;;;16.07;38.14
21109;BME280;10712;52.944;9.098;2023-03-26T15:13:11;100254.88;;;15.96;38.32
21109;BME280;10712;52.944;9.098;2023-03-26T15:21:41;100257.88;;;16.03;37.75
21109;BME280;10712;52.944;9.098;2023-03-26T15:27:44;100263.56;;;15.79;37.62
21109;BME280;10712;52.944;9.098;2023-03-26T15:30:48;100272.38;;;15.91;38.22
21109;BME280;10712;52.944;9.098;2023-03-26T15:33:56;100264.03;;;16.24;37.46
21109;BME280;10712;52.944;9.098;2023-03-26T15:40:19;100268.16;;;15.98;37.30
21109;BME280;10712;52.944;9.098;2023-03-26T15:43:11;100273.81;;;15.95;37.81
21109;BME280;10712;52.944;9.098;2023-03-26T15:49:00;100281.31;;;15.70;37.66
21109;BME280;10712;52.944;9.098;2023-03-26T15:54:49;100285.97;;;15.99;38.41
21109;BME280;10712;52.944;9.098;2023-03-26T15:57:26;100288.13;;;15.74;38.89
21109;BME280;10712;52.944;9.098;2023-03-26T16:00:08;100287.72;;;15.37;38.04
21109;BME280;10712;52.944;9.098;2023-03-26T16:03:25;100293.22;;;15.77;38.20
21109;BME280;10712;52.944;9.098;2023-03-26T16:06:34;100300.06;;;15.40;38.18
21109;BME280;10712;52.944;9.098;2023-03-26T16:15:38;100295.75;;;15.28;38.71
21109;BME280;10712;52.944;9.098;2023-03-26T16:21:01;100303.59;;;15.41;38.62
21109;BME280;10712;52.944;9.098;2023-03-26T16:36:53;100328.22;;;14.82;38.80
21109;BME280;10712;52.944;9.098;2023-03-26T16:39:40;100331.81;;;14.71;38.08
21109;BME280;10712;52.944;9.098;2023-03-26T16:45:05;100331.31;;;14.66;38.44
21109;BME280;10712;52.944;9.098;2023-03-26T16:53:50;100353.53;;;14.57;37.86
21109;BME280;10712;52.944;9.098;2023-03-26T17:03:05;100370.97;;;14.51;39.17
21109;BME280;10712;52.944;9.098;2023-03-26T17:12:02;100376.41;;;14.16;39.60
21109;BME280;10712;52.944;9.098;2023-03-26T17:23:16;100396.34;;;14.12;40.50
21109;BME280;10712;52.944;9.098;2023-03-26T17:25:59;100403.44;;;14.13;40.59
21109;BME280;10712;52.944;9.098;2023-03-26T17:29:00;100404.19;;;13.69;40.84
21109;BME280;10712;52.944;9.098;2023-03-26T17:31:50;100416.66;;;13.82;41.06
21109;BME280;10712;52.944;9.098;2023-03-26T17:42:31;100435.22;;;13.72;40.22
21109;BME280;10712;52.944;9.098;2023-03-26T17:45:13;100440.13;;;13.78;39.38
21109;BME280;10712;52.944;9.098;2023-03-26T17:51:16;100449.81;;;13.33;38.82
21109;BME280;10712;52.944;9.098;2023-03-26T17:53:42;100451.16;;;13.38;38.67
21109;BME280;10712;52.944;9.098;2023-03-26T17:56:21;100455.38;;;13.30;38.47
21109;BME280;10712;52.944;9.098;2023-03-26T17:58:54;100468.41;;;12.98;38.47
21109;BME280;10712;52.944;9.098;2023-03-26T18:01:33;100467.59;;;12.85;38.79
21109;BME280;10712;52.944;9.098;2023-03-26T18:04:07;100471.25;;;13.20;38.40
21109;BME280;10712;52.944;9.098;2023-03-26T18:12:56;100485.16;;;13.00;39.03
21109;BME280;10712;52.944;9.098;2023-03-26T18:21:05;100498.84;;;13.08;39.36
21109;BME280;10712;52.944;9.098;2023-03-26T18:23:40;100499.97;;;12.93;39.92
21109;BME280;10712;52.944;9.098;2023-03-26T18:28:45;100508.53;;;12.85;40.21
21109;BME280;10712;52.944;9.098;2023-03-26T18:33:47;100513.88;;;12.73;40.29
21109;BME280;10712;52.944;9.098;2023-03-26T18:36:15;100512.19;;;12.84;40.13
21109;BME280;10712;52.944;9.098;2023-03-26T18:38:45;100516.88;;;12.81;40.23
21109;BME280;10712;52.944;9.098;2023-03-26T18:41:36;100515.28;;;12.66;40.47
21109;BME280;10712;52.944;9.098;2023-03-26T18:44:15;100509.22;;;12.63;40.72
21109;BME280;10712;52.944;9.098;2023-03-26T18:46:42;100507.16;;;12.54;40.70
21109;BME280;10712;52.944;9.098;2023-03-26T18:49:14;100521.38;;;12.68;40.58
21109;BME280;10712;52.944;9.098;2023-03-26T18:51:42;100525.00;;;12.67;40.49
21109;BME280;10712;52.944;9.098;2023-03-26T18:54:16;100524.56;;;12.73;40.41
21109;BME280;10712;52.944;9.098;2023-03-26T18:56:47;100526.72;;;12.68;40.65